createdAt,value
2018-12-01T14:25:16.099Z,53.69
2018-12-01T14:26:16.119Z,52.91
2018-12-01T14:27:16.142Z,51.44
2018-12-01T14:28:16.163Z,54.46
2018-12-01T14:29:16.184Z,52.43
2018-12-01T14:30:16.206Z,52.43
2018-12-01T14:31:16.229Z,55.04
2018-12-01T14:32:16.253Z,52.07
2018-12-01T14:33:16.470Z,51.78
2018-12-01T14:34:16.292Z,52.55
2018-12-01T14:35:16.316Z,53.42
2018-12-01T14:36:16.337Z,52.39
2018-12-01T14:37:16.360Z,51.59
2018-12-01T14:38:16.385Z,51.46
2018-12-01T14:39:16.403Z,51.44
2018-12-01T14:40:16.425Z,52.19
2018-12-01T14:41:16.449Z,53.41
2018-12-01T14:42:16.470Z,52.93
2018-12-01T14:43:18.982Z,55.60
2018-12-01T14:44:19.001Z,56.60
2018-12-01T14:45:19.022Z,57.67
2018-12-01T14:46:19.039Z,58.22
2018-12-01T14:47:19.059Z,57.54
2018-12-01T14:48:19.082Z,57.83
2018-12-01T14:49:19.098Z,58.12
2018-12-01T14:50:19.117Z,57.92
2018-12-01T14:51:19.137Z,57.64
2018-12-01T14:52:19.158Z,58.22
2018-12-01T14:53:19.179Z,58.05
2018-12-01T14:54:19.198Z,56.99
2018-12-01T14:55:19.220Z,57.18
2018-12-01T14:56:19.240Z,57.37
2018-12-01T14:57:19.264Z,58.05
2018-12-01T14:58:19.280Z,57.95
2018-12-01T14:59:19.304Z,58.24
2018-12-01T15:00:19.323Z,57.28
2018-12-01T15:01:19.351Z,58.05
2018-12-01T15:02:19.365Z,58.24
2018-12-01T15:03:19.387Z,59.20
2018-12-01T15:04:19.409Z,58.85
2018-12-01T15:05:19.430Z,58.27
2018-12-01T15:06:19.448Z,57.21
2018-12-01T15:07:19.470Z,57.53
2018-12-01T15:08:19.491Z,56.47
2018-12-01T15:09:19.511Z,55.22
2018-12-01T15:10:19.532Z,55.54
2018-12-01T15:11:20.002Z,53.03
2018-12-01T15:12:19.572Z,52.93
2018-12-01T15:13:19.593Z,51.12
2018-12-01T15:14:19.614Z,52.73
2018-12-01T15:15:19.636Z,54.25
2018-12-01T15:16:19.657Z,56.57
2018-12-01T15:17:19.677Z,57.43
2018-12-01T15:18:19.697Z,55.79
2018-12-01T15:19:19.719Z,56.66
2018-12-01T15:20:19.744Z,56.57
2018-12-01T15:21:19.763Z,55.02
2018-12-01T15:22:44.516Z,60.86
2018-12-01T15:23:44.536Z,59.58
2018-12-01T15:24:44.560Z,60.87
2018-12-01T15:25:44.579Z,59.49
2018-12-01T15:26:44.600Z,60.75
2018-12-01T15:27:44.622Z,61.58
2018-12-01T15:28:44.642Z,62.83
2018-12-01T15:29:44.914Z,58.50
2018-12-01T15:30:44.684Z,62.26
2018-12-01T15:31:44.707Z,62.26
2018-12-01T15:32:44.728Z,60.04
2018-12-01T15:33:44.749Z,59.20
2018-12-01T15:34:44.769Z,54.69
2018-12-01T15:35:44.792Z,54.72
2018-12-01T15:36:44.813Z,53.47
2018-12-01T15:37:44.833Z,53.59
2018-12-01T15:38:44.911Z,52.43
2018-12-01T15:39:44.874Z,53.01
2018-12-01T15:40:44.895Z,52.72
2018-12-01T15:41:44.915Z,52.43
2018-12-01T15:42:44.932Z,52.81
2018-12-01T15:43:44.954Z,52.62
2018-12-01T15:44:44.972Z,52.33
2018-12-01T15:45:44.995Z,50.86
2018-12-01T15:46:45.013Z,51.34
2018-12-01T15:47:45.037Z,51.85
2018-12-01T15:48:45.055Z,50.04
2018-12-01T15:49:45.076Z,48.88
2018-12-01T15:50:45.097Z,49.55
2018-12-01T15:51:45.120Z,49.58
2018-12-01T15:52:45.141Z,48.81
2018-12-01T15:53:45.164Z,48.81
2018-12-01T15:54:45.185Z,48.13
2018-12-01T15:55:45.307Z,48.13
2018-12-01T15:56:45.228Z,47.94
2018-12-01T15:57:45.255Z,48.64
2018-12-01T15:58:45.722Z,48.35
2018-12-01T15:59:45.291Z,48.93
2018-12-01T16:00:45.314Z,47.55
2018-12-01T16:01:45.335Z,47.84
2018-12-01T16:02:45.355Z,48.52
2018-12-01T16:03:45.377Z,48.71
2018-12-01T16:04:45.399Z,49.12
